createdAt,value
2022-07-29T00:01:43.897Z,96480.25
2022-07-29T00:04:12.991Z,96475.66
2022-07-29T00:06:41.304Z,96475.66
2022-07-29T00:09:09.278Z,96467.78
2022-07-29T00:11:38.734Z,96457.59
2022-07-29T00:14:06.894Z,96465.66
2022-07-29T00:16:34.951Z,96464.94
2022-07-29T00:19:02.892Z,96467.06
2022-07-29T00:21:31.337Z,96465.78
2022-07-29T00:23:59.274Z,96468.47
2022-07-29T00:26:28.797Z,96465.13
2022-07-29T00:29:30.692Z,96463.47
2022-07-29T00:31:46.129Z,96468.56
2022-07-29T00:34:28.072Z,96466.09
2022-07-29T00:36:55.983Z,96466.91
2022-07-29T00:39:24.130Z,96468.94
2022-07-29T00:41:52.909Z,96461.44
2022-07-29T00:44:22.601Z,96461.44
2022-07-29T00:46:50.617Z,96452.56
2022-07-29T00:49:18.849Z,96455.59
2022-07-29T00:51:47.155Z,96447.56
2022-07-29T00:54:15.783Z,96448.09
2022-07-29T00:56:44.043Z,96449.97
2022-07-29T00:59:11.932Z,96444.72
2022-07-29T01:01:41.280Z,96444.16
2022-07-29T01:04:09.408Z,96438.69
2022-07-29T01:06:37.620Z,96441.81
2022-07-29T01:09:05.660Z,96445.94
2022-07-29T01:11:33.804Z,96425.03
2022-07-29T01:14:03.111Z,96429.88
2022-07-29T01:16:34.271Z,96435.09
2022-07-29T01:19:15.307Z,96426.09
2022-07-29T01:21:54.085Z,96434.41
2022-07-29T01:24:42.079Z,96431.47
2022-07-29T01:27:28.398Z,96435.13
2022-07-29T01:30:01.217Z,96439.69
2022-07-29T01:32:37.529Z,96428.50
2022-07-29T01:35:08.702Z,96428.03
2022-07-29T01:37:45.140Z,96425.72
2022-07-29T01:40:22.812Z,96433.13
2022-07-29T01:42:53.694Z,96430.44
2022-07-29T01:45:28.482Z,96418.22
2022-07-29T01:48:02.438Z,96417.19
2022-07-29T01:50:36.515Z,96420.72
2022-07-29T01:53:08.635Z,96413.97
2022-07-29T01:55:40.571Z,96420.53
2022-07-29T01:58:10.397Z,96413.88
2022-07-29T02:00:41.336Z,96413.69
2022-07-29T02:03:13.794Z,96418.78
2022-07-29T02:05:44.684Z,96408.88
2022-07-29T02:08:14.020Z,96407.88
2022-07-29T02:10:42.886Z,96411.47
2022-07-29T02:13:13.241Z,96412.66
2022-07-29T02:15:44.419Z,96417.84
2022-07-29T02:18:17.600Z,96407.97
2022-07-29T02:20:48.980Z,96407.97
2022-07-29T02:23:21.169Z,96413.69
2022-07-29T02:25:51.357Z,96407.75
2022-07-29T02:28:22.226Z,96409.06
2022-07-29T02:30:54.306Z,96409.88
2022-07-29T02:33:23.602Z,96410.25
2022-07-29T02:35:52.908Z,96409.97
2022-07-29T02:38:39.715Z,96406.09
2022-07-29T02:41:17.198Z,96407.47
2022-07-29T02:43:47.104Z,96402.84
2022-07-29T02:46:28.582Z,96412.56
2022-07-29T02:49:01.573Z,96405.53
2022-07-29T02:51:44.480Z,96411.25
2022-07-29T02:54:22.252Z,96402.94
2022-07-29T02:56:53.665Z,96406.63
2022-07-29T02:59:27.022Z,96405.50
2022-07-29T03:01:57.905Z,96402.81
2022-07-29T03:04:29.362Z,96404.50
2022-07-29T03:07:00.847Z,96405.38
2022-07-29T03:09:30.119Z,96401.22
2022-07-29T03:11:59.219Z,96397.25
2022-07-29T03:14:28.383Z,96402.63
2022-07-29T03:16:58.212Z,96403.16
2022-07-29T03:19:26.284Z,96401.81
2022-07-29T03:21:54.663Z,96408.66
2022-07-29T03:24:33.969Z,96411.00
2022-07-29T03:27:02.549Z,96406.69
2022-07-29T03:29:33.856Z,96413.88
2022-07-29T03:32:08.482Z,96413.59
2022-07-29T03:34:37.903Z,96408.13
2022-07-29T03:37:06.828Z,96418.38
2022-07-29T03:39:40.204Z,96415.34
2022-07-29T03:42:10.441Z,96421.06
2022-07-29T03:44:40.029Z,96417.19
2022-07-29T03:47:11.517Z,96421.34
2022-07-29T03:49:41.099Z,96421.06
2022-07-29T03:52:09.904Z,96420.56
2022-07-29T03:54:37.876Z,96409.03
2022-07-29T03:57:09.311Z,96423.78
2022-07-29T03:59:38.839Z,96411.41
2022-07-29T04:02:11.286Z,96421.25
2022-07-29T04:04:39.581Z,96419.59
2022-07-29T04:07:07.577Z,96419.78
2022-07-29T04:09:35.469Z,96424.50
2022-07-29T04:12:04.404Z,96419.16
2022-07-29T04:14:33.288Z,96425.66
2022-07-29T04:17:01.506Z,96427.34
2022-07-29T04:19:31.296Z,96424.13
2022-07-29T04:22:00.974Z,96426.81
2022-07-29T04:24:29.115Z,96433.16
2022-07-29T04:26:57.015Z,96426.44
2022-07-29T04:29:24.918Z,96430.63
2022-07-29T04:31:52.839Z,96425.75
2022-07-29T04:34:21.126Z,96427.03
2022-07-29T04:36:50.517Z,96427.91
2022-07-29T04:39:22.782Z,96429.38
2022-07-29T04:41:52.559Z,96429.66
2022-07-29T04:44:26.552Z,96436.88
2022-07-29T04:46:58.657Z,96434.50
2022-07-29T04:49:26.645Z,96429.97
2022-07-29T04:51:55.970Z,96427.47
2022-07-29T04:54:23.894Z,96430.25
2022-07-29T04:56:53.361Z,96430.41
2022-07-29T04:59:21.262Z,96423.19
2022-07-29T05:01:49.193Z,96426.34
2022-07-29T05:04:17.616Z,96425.00
2022-07-29T05:06:45.740Z,96430.53
2022-07-29T05:09:15.040Z,96432.66
2022-07-29T05:11:42.872Z,96438.66
2022-07-29T05:14:10.817Z,96438.97
2022-07-29T05:16:40.120Z,96442.13
2022-07-29T05:19:13.682Z,96434.91
2022-07-29T05:21:42.179Z,96442.75
2022-07-29T05:24:10.154Z,96444.22
2022-07-29T05:26:39.693Z,96448.72
2022-07-29T05:29:07.671Z,96448.50
2022-07-29T05:31:55.579Z,96447.31
2022-07-29T05:34:23.553Z,96447.25
2022-07-29T05:36:51.902Z,96442.97
2022-07-29T05:39:19.948Z,96443.63
2022-07-29T05:41:52.015Z,96440.13
2022-07-29T05:44:20.059Z,96446.81
2022-07-29T05:46:48.012Z,96446.25
2022-07-29T05:49:26.874Z,96449.03
2022-07-29T05:51:55.404Z,96449.66
2022-07-29T05:54:23.733Z,96458.63
2022-07-29T05:56:53.005Z,96458.56
2022-07-29T05:59:20.952Z,96455.44
2022-07-29T06:01:48.931Z,96459.69
2022-07-29T06:04:17.170Z,96466.00
2022-07-29T06:06:45.306Z,96458.03
2022-07-29T06:09:14.342Z,96462.19
2022-07-29T06:11:42.535Z,96464.75
2022-07-29T06:14:12.096Z,96466.97
2022-07-29T06:16:40.096Z,96470.72
2022-07-29T06:19:08.087Z,96471.84
2022-07-29T06:21:38.674Z,96473.41
2022-07-29T06:24:10.145Z,96474.66
2022-07-29T06:26:40.020Z,96478.81
2022-07-29T06:29:08.301Z,96474.31
2022-07-29T06:31:37.508Z,96473.00
2022-07-29T06:34:05.915Z,96471.03
2022-07-29T06:36:36.519Z,96468.41
2022-07-29T06:39:07.771Z,96471.53
2022-07-29T06:41:36.469Z,96477.16
2022-07-29T06:44:10.732Z,96482.16
2022-07-29T06:46:40.155Z,96481.13
2022-07-29T06:49:08.215Z,96482.66
2022-07-29T06:51:36.181Z,96476.97
2022-07-29T06:54:06.542Z,96478.88
2022-07-29T06:56:39.137Z,96473.16
2022-07-29T06:59:09.079Z,96482.38
2022-07-29T07:01:37.690Z,96475.13
2022-07-29T07:04:07.296Z,96483.50
2022-07-29T07:06:35.226Z,96480.41
2022-07-29T07:09:03.412Z,96482.06
2022-07-29T07:11:31.528Z,96483.16
2022-07-29T07:14:03.409Z,96486.84
2022-07-29T07:16:33.133Z,96496.00
2022-07-29T07:19:01.428Z,96500.16
2022-07-29T07:21:31.096Z,96499.00
2022-07-29T07:23:59.616Z,96498.59
2022-07-29T07:26:28.049Z,96500.88
2022-07-29T07:28:56.116Z,96492.03
2022-07-29T07:31:24.079Z,96501.19
2022-07-29T07:33:52.629Z,96498.59
2022-07-29T07:36:20.575Z,96507.13
2022-07-29T07:38:49.962Z,96502.22
2022-07-29T07:41:17.937Z,96510.34
2022-07-29T07:43:45.851Z,96509.75
2022-07-29T07:46:13.842Z,96499.16
2022-07-29T07:48:41.846Z,96489.47
2022-07-29T07:51:10.204Z,96488.28
2022-07-29T07:53:38.044Z,96492.00
2022-07-29T07:56:10.426Z,96497.88
2022-07-29T07:58:39.433Z,96494.94
2022-07-29T08:01:07.550Z,96491.25
2022-07-29T08:03:35.658Z,96503.25
2022-07-29T08:06:03.680Z,96499.34
2022-07-29T08:08:31.596Z,96499.94
2022-07-29T08:11:02.154Z,96505.56
2022-07-29T08:13:34.867Z,96501.00
2022-07-29T08:16:02.995Z,96507.06
2022-07-29T08:18:32.962Z,96499.41
2022-07-29T08:21:01.117Z,96494.63
2022-07-29T08:23:46.473Z,96501.69
2022-07-29T08:26:17.031Z,96492.16
2022-07-29T08:28:50.436Z,96489.84
2022-07-29T08:31:19.280Z,96490.06
2022-07-29T08:33:47.264Z,96497.75
2022-07-29T08:36:15.158Z,96495.47
2022-07-29T08:38:43.071Z,96492.16
2022-07-29T08:41:11.270Z,96491.31
2022-07-29T08:43:39.213Z,96495.88
2022-07-29T08:46:08.562Z,96496.09
2022-07-29T08:48:36.742Z,96493.00
2022-07-29T08:51:06.120Z,96493.00
2022-07-29T08:53:35.152Z,96498.38
2022-07-29T08:56:03.978Z,96497.34
2022-07-29T08:58:36.765Z,96499.22
2022-07-29T09:01:07.703Z,96502.72
2022-07-29T09:03:42.564Z,96507.91
2022-07-29T09:06:10.890Z,96507.75
2022-07-29T09:08:38.804Z,96501.09
2022-07-29T09:11:08.356Z,96505.88
2022-07-29T09:13:37.113Z,96500.66
2022-07-29T09:16:09.414Z,96494.19
2022-07-29T09:18:39.077Z,96503.53
2022-07-29T09:21:27.965Z,96505.00
2022-07-29T09:24:04.360Z,96512.03
2022-07-29T09:26:33.479Z,96502.50
2022-07-29T09:29:02.075Z,96504.97
2022-07-29T09:31:36.243Z,96499.97
2022-07-29T09:34:05.650Z,96493.28
2022-07-29T09:36:41.336Z,96494.91
2022-07-29T09:39:09.451Z,96486.56
2022-07-29T09:41:48.021Z,96483.59
2022-07-29T09:44:16.792Z,96488.94
2022-07-29T09:46:56.404Z,96483.91
2022-07-29T09:49:24.920Z,96484.31
2022-07-29T09:52:05.426Z,96482.00
2022-07-29T09:54:37.665Z,96469.50
2022-07-29T09:57:07.481Z,96473.03
2022-07-29T09:59:35.613Z,96473.06
2022-07-29T10:02:03.631Z,96477.38
2022-07-29T10:04:41.623Z,96474.91
2022-07-29T10:07:11.284Z,96477.25
2022-07-29T10:09:39.195Z,96488.94
2022-07-29T10:12:12.033Z,96488.94
2022-07-29T10:14:40.679Z,96484.84
2022-07-29T10:17:10.771Z,96478.66
2022-07-29T10:19:40.163Z,96478.28
2022-07-29T10:22:11.489Z,96482.28
2022-07-29T10:24:40.523Z,96486.44
2022-07-29T10:27:10.532Z,96490.06
2022-07-29T10:29:38.483Z,96490.69
2022-07-29T10:32:24.723Z,96497.19
2022-07-29T10:35:21.977Z,96515.50
2022-07-29T10:38:17.237Z,96532.94
2022-07-29T10:41:12.213Z,96532.47
2022-07-29T10:43:51.278Z,96531.78
2022-07-29T10:46:20.481Z,96527.22
2022-07-29T10:49:09.079Z,96531.31
2022-07-29T10:52:01.317Z,96514.03
2022-07-29T10:54:44.110Z,96519.34
2022-07-29T10:57:53.071Z,96525.94
2022-07-29T11:00:31.371Z,96534.78
2022-07-29T11:03:00.104Z,96539.81
2022-07-29T11:05:32.073Z,96540.16
2022-07-29T11:08:27.836Z,96547.56
2022-07-29T11:11:44.127Z,96535.91
2022-07-29T11:14:40.905Z,96537.88
2022-07-29T11:17:09.097Z,96529.81
2022-07-29T11:19:40.389Z,96531.47
2022-07-29T11:22:16.601Z,96535.44
2022-07-29T11:24:50.280Z,96532.94
2022-07-29T11:27:20.980Z,96536.44
2022-07-29T11:29:55.776Z,96540.44
2022-07-29T11:32:25.580Z,96536.00
2022-07-29T11:35:16.630Z,96523.22
2022-07-29T11:37:51.375Z,96523.38
2022-07-29T11:40:23.751Z,96541.41
2022-07-29T11:42:52.632Z,96537.88
2022-07-29T11:45:41.271Z,96536.25
2022-07-29T11:48:32.054Z,96532.19
2022-07-29T11:51:01.549Z,96518.59
2022-07-29T11:53:32.874Z,96518.09
2022-07-29T11:56:03.419Z,96526.00
2022-07-29T11:58:32.136Z,96532.09
2022-07-29T12:01:04.105Z,96538.63
2022-07-29T12:03:35.832Z,96545.00
2022-07-29T12:06:07.361Z,96541.66
2022-07-29T12:08:42.477Z,96534.06
2022-07-29T12:11:21.228Z,96532.13
2022-07-29T12:13:49.799Z,96529.66
2022-07-29T12:16:26.165Z,96523.25
2022-07-29T12:18:59.392Z,96523.81
2022-07-29T12:21:28.846Z,96516.91
2022-07-29T12:24:04.814Z,96526.41
2022-07-29T12:26:50.682Z,96528.19
2022-07-29T12:29:20.330Z,96533.09
2022-07-29T12:32:03.185Z,96530.53
2022-07-29T12:34:31.859Z,96521.81
2022-07-29T12:36:59.823Z,96520.03
2022-07-29T12:39:29.064Z,96518.00
2022-07-29T12:42:03.914Z,96523.28
2022-07-29T12:44:46.175Z,96534.59
2022-07-29T12:47:15.800Z,96538.50
2022-07-29T12:49:43.930Z,96548.78
2022-07-29T12:52:29.405Z,96543.94
2022-07-29T12:54:57.996Z,96543.13
2022-07-29T12:57:26.912Z,96544.88
2022-07-29T13:00:03.919Z,96544.06
2022-07-29T13:02:33.666Z,96544.16
2022-07-29T13:05:02.797Z,96544.44
2022-07-29T13:07:54.581Z,96553.81
2022-07-29T13:10:24.280Z,96559.63
2022-07-29T13:13:09.023Z,96554.44
2022-07-29T13:15:37.608Z,96547.91
2022-07-29T13:18:07.875Z,96549.72
2022-07-29T13:20:36.097Z,96549.09
2022-07-29T13:23:04.141Z,96554.81
2022-07-29T13:25:34.339Z,96553.16
2022-07-29T13:28:02.249Z,96553.06
2022-07-29T13:30:30.277Z,96543.59
2022-07-29T13:32:58.213Z,96544.28
2022-07-29T13:35:30.697Z,96542.53
2022-07-29T13:37:58.722Z,96547.44
2022-07-29T13:40:26.942Z,96539.84
2022-07-29T13:42:54.903Z,96536.56
2022-07-29T13:45:22.964Z,96550.34
2022-07-29T13:47:50.888Z,96543.59
2022-07-29T13:50:18.796Z,96541.69
2022-07-29T13:52:49.343Z,96539.00
2022-07-29T13:55:17.202Z,96532.47
2022-07-29T13:57:45.104Z,96530.69
2022-07-29T14:00:14.740Z,96530.81
2022-07-29T14:02:42.581Z,96515.16
2022-07-29T14:05:11.578Z,96525.16
2022-07-29T14:07:39.934Z,96515.97
2022-07-29T14:10:10.253Z,96526.72
2022-07-29T14:12:38.323Z,96514.16
2022-07-29T14:15:07.339Z,96516.72
2022-07-29T14:17:35.409Z,96519.19
2022-07-29T14:20:03.467Z,96516.56
2022-07-29T14:22:31.371Z,96518.47
2022-07-29T14:25:02.304Z,96510.41
2022-07-29T14:27:44.809Z,96511.50
2022-07-29T14:30:13.706Z,96512.59
2022-07-29T14:32:41.702Z,96512.84
2022-07-29T14:35:10.311Z,96519.50
2022-07-29T14:37:40.381Z,96517.44
2022-07-29T14:40:10.092Z,96521.00
2022-07-29T14:42:38.520Z,96517.53
2022-07-29T14:45:10.751Z,96522.53
2022-07-29T14:47:40.516Z,96522.13
2022-07-29T14:50:09.477Z,96521.31
2022-07-29T14:52:37.377Z,96524.41
2022-07-29T14:55:16.390Z,96525.69
2022-07-29T14:57:48.183Z,96522.59
2022-07-29T15:00:18.366Z,96526.75
2022-07-29T15:03:01.299Z,96523.47
2022-07-29T15:05:30.084Z,96528.41
2022-07-29T15:07:57.976Z,96533.00
2022-07-29T15:10:27.146Z,96539.00
2022-07-29T15:12:55.046Z,96529.06
2022-07-29T15:15:24.499Z,96528.44
2022-07-29T15:17:52.368Z,96525.56
2022-07-29T15:20:20.478Z,96523.06
2022-07-29T15:22:48.357Z,96524.69
2022-07-29T15:25:16.313Z,96522.22
2022-07-29T15:27:44.433Z,96530.09
2022-07-29T15:30:32.559Z,96528.03
2022-07-29T15:33:04.450Z,96528.66
2022-07-29T15:35:32.545Z,96523.91
2022-07-29T15:38:00.627Z,96519.78
2022-07-29T15:40:28.897Z,96521.84
2022-07-29T15:42:56.839Z,96520.81
2022-07-29T15:45:25.020Z,96520.81
2022-07-29T15:47:52.955Z,96519.38
2022-07-29T15:50:22.734Z,96523.53
2022-07-29T15:52:50.604Z,96525.19
2022-07-29T15:55:19.002Z,96526.66
2022-07-29T15:57:47.045Z,96529.78
2022-07-29T16:00:17.169Z,96531.44
2022-07-29T16:02:45.563Z,96530.59
2022-07-29T16:05:13.633Z,96529.56
2022-07-29T16:07:43.004Z,96522.09
2022-07-29T16:10:11.000Z,96527.06
2022-07-29T16:12:38.907Z,96525.19
2022-07-29T16:15:10.504Z,96523.38
2022-07-29T16:17:38.855Z,96526.06
2022-07-29T16:20:08.193Z,96526.47
2022-07-29T16:22:36.287Z,96520.47
2022-07-29T16:25:06.268Z,96525.22
2022-07-29T16:27:37.549Z,96521.91
2022-07-29T16:30:07.956Z,96522.31
2022-07-29T16:32:35.900Z,96515.28
2022-07-29T16:35:05.213Z,96520.84
2022-07-29T16:37:35.350Z,96526.44
2022-07-29T16:40:03.499Z,96521.69
2022-07-29T16:42:45.973Z,96525.84
2022-07-29T16:45:14.755Z,96517.75
2022-07-29T16:47:43.291Z,96521.03
2022-07-29T16:50:11.262Z,96518.56
2022-07-29T16:52:39.960Z,96521.50
2022-07-29T16:55:08.857Z,96528.53
2022-07-29T16:57:38.077Z,96524.19
2022-07-29T17:00:07.382Z,96527.50
2022-07-29T17:02:35.269Z,96525.22
2022-07-29T17:05:03.130Z,96524.19
2022-07-29T17:07:31.040Z,96535.22
2022-07-29T17:10:03.599Z,96531.28
2022-07-29T17:12:32.356Z,96526.53
2022-07-29T17:15:01.661Z,96532.75
2022-07-29T17:17:38.640Z,96530.28
2022-07-29T17:20:09.353Z,96530.69
2022-07-29T17:22:37.501Z,96535.91
2022-07-29T17:25:06.567Z,96535.72
2022-07-29T17:27:35.046Z,96537.34
2022-07-29T17:30:06.395Z,96535.47
2022-07-29T17:32:38.452Z,96537.16
2022-07-29T17:35:28.602Z,96548.97
2022-07-29T17:37:57.055Z,96537.38
2022-07-29T17:40:25.001Z,96539.03
2022-07-29T17:42:52.943Z,96547.75
2022-07-29T17:45:22.173Z,96543.59
2022-07-29T17:47:50.087Z,96546.50
2022-07-29T17:50:17.920Z,96548.59
2022-07-29T17:52:45.776Z,96549.41
2022-07-29T17:55:14.132Z,96551.28
2022-07-29T17:57:42.162Z,96538.44
2022-07-29T18:00:10.798Z,96542.13
2022-07-29T18:02:40.084Z,96551.47
2022-07-29T18:05:08.545Z,96548.16
2022-07-29T18:07:36.467Z,96553.53
2022-07-29T18:10:04.907Z,96552.50
2022-07-29T18:12:32.863Z,96558.09
2022-07-29T18:15:00.784Z,96562.19
2022-07-29T18:17:49.448Z,96554.72
2022-07-29T18:20:17.930Z,96560.53
2022-07-29T18:22:45.802Z,96550.56
2022-07-29T18:25:13.750Z,96559.84
2022-07-29T18:27:41.606Z,96569.59
2022-07-29T18:30:10.325Z,96567.09
2022-07-29T18:32:38.264Z,96560.84
2022-07-29T18:35:06.769Z,96572.44
2022-07-29T18:38:00.871Z,96572.84
2022-07-29T18:40:25.796Z,96568.63
2022-07-29T18:42:53.826Z,96562.16
2022-07-29T18:45:21.966Z,96571.06
2022-07-29T18:50:19.309Z,96565.09
2022-07-29T18:52:48.534Z,96560.94
2022-07-29T18:55:16.416Z,96564.59
2022-07-29T18:57:55.015Z,96559.38
2022-07-29T19:00:25.427Z,96567.59
2022-07-29T19:02:53.934Z,96564.00
2022-07-29T19:05:23.025Z,96574.09
2022-07-29T19:07:53.094Z,96576.53
2022-07-29T19:10:21.268Z,96581.66
2022-07-29T19:12:49.207Z,96591.53
2022-07-29T19:15:20.246Z,96586.72
2022-07-29T19:17:49.315Z,96592.41
2022-07-29T19:20:17.241Z,96606.81
2022-07-29T19:22:45.190Z,96599.13
2022-07-29T19:25:15.196Z,96615.56
2022-07-29T19:27:43.142Z,96612.44
2022-07-29T19:30:11.633Z,96622.06
2022-07-29T19:32:39.560Z,96618.94
2022-07-29T19:35:31.069Z,96625.91
2022-07-29T19:38:00.882Z,96625.84
2022-07-29T19:40:30.967Z,96629.09
2022-07-29T19:42:59.174Z,96635.38
2022-07-29T19:45:27.428Z,96634.03
2022-07-29T19:48:00.691Z,96638.75
2022-07-29T19:50:29.572Z,96639.66
2022-07-29T19:52:57.569Z,96638.72
2022-07-29T19:55:25.507Z,96646.84
2022-07-29T19:57:54.883Z,96647.41
2022-07-29T20:00:23.782Z,96644.19
2022-07-29T20:02:52.099Z,96641.00
2022-07-29T20:05:20.134Z,96636.84
2022-07-29T20:07:48.148Z,96644.91
2022-07-29T20:10:16.339Z,96633.59
2022-07-29T20:12:44.309Z,96634.81
2022-07-29T20:15:16.609Z,96643.56
2022-07-29T20:17:44.854Z,96633.66
2022-07-29T20:20:13.173Z,96636.06
2022-07-29T20:22:41.060Z,96633.47
2022-07-29T20:25:09.986Z,96634.84
2022-07-29T20:27:40.348Z,96629.03
2022-07-29T20:30:13.200Z,96629.09
2022-07-29T20:32:42.774Z,96625.56
2022-07-29T20:35:12.070Z,96630.97
2022-07-29T20:37:51.402Z,96628.53
2022-07-29T20:40:25.375Z,96623.41
2022-07-29T20:42:53.398Z,96618.75
2022-07-29T20:45:21.337Z,96621.13
2022-07-29T20:47:51.677Z,96626.50
2022-07-29T20:50:20.514Z,96631.56
2022-07-29T20:52:51.730Z,96631.44
2022-07-29T20:55:19.988Z,96628.63
2022-07-29T20:57:47.879Z,96625.13
2022-07-29T21:00:16.159Z,96625.00
2022-07-29T21:02:44.046Z,96627.66
2022-07-29T21:05:13.401Z,96628.03
2022-07-29T21:07:41.358Z,96622.22
2022-07-29T21:10:09.610Z,96627.72
2022-07-29T21:12:37.642Z,96624.09
2022-07-29T21:15:06.676Z,96630.28
2022-07-29T21:17:35.953Z,96633.84
2022-07-29T21:20:06.686Z,96628.94
2022-07-29T21:22:35.988Z,96630.66
2022-07-29T21:25:04.065Z,96632.16
2022-07-29T21:27:49.384Z,96630.66
2022-07-29T21:30:17.423Z,96627.50
2022-07-29T21:32:45.367Z,96623.53
2022-07-29T21:35:30.216Z,96627.19
2022-07-29T21:38:02.540Z,96630.03
2022-07-29T21:40:30.477Z,96633.59
2022-07-29T21:42:58.352Z,96631.09
2022-07-29T21:45:26.851Z,96623.25
2022-07-29T21:47:54.693Z,96617.25
2022-07-29T21:50:22.678Z,96625.09
2022-07-29T21:52:50.515Z,96628.28
2022-07-29T21:55:19.969Z,96618.41
2022-07-29T21:57:50.952Z,96626.28
2022-07-29T22:00:18.880Z,96632.50
2022-07-29T22:02:46.940Z,96635.03
2022-07-29T22:05:15.394Z,96637.53
2022-07-29T22:07:56.521Z,96633.84
2022-07-29T22:10:27.359Z,96645.72
2022-07-29T22:12:56.662Z,96645.91
2022-07-29T22:15:25.293Z,96645.59
2022-07-29T22:17:53.384Z,96644.25
2022-07-29T22:20:22.047Z,96654.13
2022-07-29T22:22:49.980Z,96653.63
2022-07-29T22:25:17.917Z,96653.97
2022-07-29T22:27:47.229Z,96662.38
2022-07-29T22:30:15.415Z,96664.84
2022-07-29T22:32:43.591Z,96667.88
2022-07-29T22:35:11.919Z,96675.22
2022-07-29T22:37:40.168Z,96672.91
2022-07-29T22:40:09.191Z,96681.75
2022-07-29T22:42:37.096Z,96669.91
2022-07-29T22:45:11.618Z,96672.72
2022-07-29T22:47:47.861Z,96673.34
2022-07-29T22:50:17.173Z,96668.84
2022-07-29T22:52:45.274Z,96659.31
2022-07-29T22:55:13.228Z,96660.66
2022-07-29T22:57:41.143Z,96661.34
2022-07-29T23:00:11.777Z,96659.16
2022-07-29T23:02:41.231Z,96662.16
2022-07-29T23:05:10.329Z,96663.81
2022-07-29T23:07:38.371Z,96670.53
2022-07-29T23:10:07.509Z,96661.66
2022-07-29T23:12:35.362Z,96659.81
2022-07-29T23:15:04.573Z,96662.81
2022-07-29T23:17:36.097Z,96666.66
2022-07-29T23:20:07.413Z,96664.50
2022-07-29T23:22:35.312Z,96664.97
2022-07-29T23:25:03.383Z,96670.63
2022-07-29T23:27:31.297Z,96672.81
2022-07-29T23:29:59.178Z,96676.47
2022-07-29T23:32:27.128Z,96676.66
2022-07-29T23:34:56.360Z,96681.47
2022-07-29T23:37:24.465Z,96689.16
2022-07-29T23:39:54.874Z,96690.16
2022-07-29T23:42:22.738Z,96692.16
2022-07-29T23:44:50.602Z,96686.81
2022-07-29T23:47:18.495Z,96687.78
2022-07-29T23:49:46.514Z,96687.13
2022-07-29T23:52:15.756Z,96681.78
2022-07-29T23:54:43.763Z,96694.63
2022-07-29T23:57:11.628Z,96698.00
2022-07-29T23:59:39.732Z,96695.13
